Data for 10/14/2016

Time Sea-Level Adjusted Pressure Absolute Pressure Temperature Relative Humidity Dew Point   
(mb) (inHg) (mb) (inHg) (C) (F) (%) (C) (F)
00:05 1010 29.83 839 24.78 14.8 58.7 37 0.3 32.6
00:10 1010 29.83 839 24.78 14.5 58 37 0.1 32.2
00:15 1010 29.83 839 24.78 14.2 57.6 37 -0 31.9
00:20 1010 29.83 839 24.78 13.8 56.8 40 0.3 32.6
00:25 1010 29.83 839 24.78 13.5 56.3 41 0.5 32.9
00:30 1009 29.8 839 24.78 13.8 56.8 40 0.5 32.9
00:35 1009 29.8 839 24.78 14 57.3 40 0.7 33.3
00:40 1009 29.8 839 24.78 14.2 57.6 39 0.4 32.8
00:45 1009 29.8 839 24.78 14.9 58.7 38 0.6 33.1
00:50 1009 29.8 839 24.78 15.1 59.2 36 0.2 32.4
00:55 1009 29.8 839 24.78 15.7 60.2 37 0.9 33.7
01:00 1010 29.83 839 24.78 15.7 60.2 36 0.8 33.4
01:05 1010 29.83 839 24.78 15.8 60.4 36 0.9 33.7
01:10 1009 29.8 839 24.78 15.9 60.7 35 0.5 32.9
01:15 1009 29.8 839 24.78 15.9 60.6 35 0.7 33.2
01:20 1009 29.8 839 24.78 15.7 60.3 36 0.7 33.3
01:25 1009 29.8 838 24.75 15.6 60 37 1 33.8
01:30 1009 29.8 838 24.75 15.5 59.9 36 0.7 33.3
01:35 1009 29.8 838 24.75 15.6 60 36 0.8 33.5
01:40 1009 29.8 838 24.75 15.5 60 36 0.8 33.4
01:45 1009 29.8 838 24.75 15.5 59.8 37 0.9 33.7
01:50 1009 29.8 838 24.75 15.6 60 36 0.8 33.4
01:55 1009 29.8 838 24.75 15.6 60 36 0.8 33.5
02:00 1008 29.77 838 24.75 15.6 60.1 36 0.6 33.1
02:05 1008 29.77 837 24.72 15.7 60.3 35 0.4 32.8
02:10 1008 29.77 837 24.72 15.9 60.6 34 0.2 32.3
02:15 1008 29.77 837 24.72 16 60.8 35 0.6 33.2
02:20 1008 29.77 837 24.72 15.9 60.7 35 0.7 33.3
02:25 1008 29.77 837 24.72 15.9 60.6 36 1.1 34
02:30 1008 29.77 837 24.72 15.8 60.4 36 0.9 33.5
02:35 1008 29.77 837 24.72 15.6 60.2 37 1 33.8
02:40 1008 29.77 837 24.72 15.6 60 36 0.6 33.1
02:45 1008 29.77 837 24.72 15.6 60 37 0.9 33.7
02:50 1007 29.74 837 24.72 15.2 59.3 38 1.2 34.1
02:55 1007 29.74 837 24.72 15 59 37 0.7 33.3
03:00 1007 29.74 836 24.69 15 59.1 38 1 33.8
03:05 1007 29.74 836 24.69 14.9 58.8 35 -0.4 31.3
03:10 1007 29.74 836 24.69 15.4 59.6 35 0 32
03:15 1007 29.74 836 24.69 15.4 59.8 35 0.1 32.2
03:20 1007 29.74 836 24.69 15.5 59.9 33 -0.5 31.2
03:25 1007 29.74 836 24.69 16 60.7 33 -0.3 31.5
03:30 1007 29.74 836 24.69 16 60.8 33 -0.3 31.4
03:35 1007 29.74 836 24.69 16.2 61.2 32 -0.5 31.1
03:40 1007 29.74 836 24.69 16.3 61.3 31 -0.7 30.7
03:45 1007 29.74 836 24.69 16.7 62 29 -1.1 30
03:50 1007 29.74 836 24.69 17 62.5 29 -0.9 30.4
03:55 1007 29.74 836 24.69 17 62.7 30 -0.7 30.8
04:00 1007 29.74 836 24.69 16.7 62.1 30 -0.8 30.6
04:05 1007 29.74 836 24.69 16.6 61.9 30 -1 30.1
04:10 1007 29.74 836 24.69 16.9 62.3 30 -0.6 30.9
04:15 1007 29.74 836 24.69 16.6 61.8 31 -0.6 30.9
04:20 1007 29.74 836 24.69 16.5 61.8 30 -0.9 30.4
04:25 1007 29.74 836 24.69 16.4 61.5 32 -0.2 31.7
04:30 1006 29.71 836 24.69 16 60.8 31 -0.9 30.3
04:35 1006 29.71 836 24.69 16.3 61.4 31 -0.9 30.4
04:40 1006 29.71 836 24.69 16.7 62.1 29 -1.1 30.1
04:45 1006 29.71 836 24.69 16.9 62.4 29 -1.1 30
04:50 1006 29.71 835 24.66 17 62.6 28 -1.6 29.1
04:55 1006 29.71 835 24.66 17.2 62.9 28 -1.3 29.7
05:00 1006 29.71 835 24.66 17.1 62.8 28 -1.5 29.3
05:05 1006 29.71 835 24.66 17 62.7 29 -1.1 30
05:10 1006 29.71 835 24.66 16.8 62.3 28 -1.6 29.2
05:15 1006 29.71 835 24.66 17.1 62.7 28 -1.3 29.6
05:20 1006 29.71 835 24.66 17.4 63.2 27 -1.7 28.9
05:25 1006 29.71 835 24.66 17.5 63.4 26 -2 28.3
05:30 1006 29.71 835 24.66 17.6 63.8 26 -1.7 28.9
05:35 1006 29.71 835 24.66 17.7 63.8 26 -2.1 28.2
05:40 1006 29.71 835 24.66 17.6 63.7 26 -2.2 28.1
05:45 1006 29.71 835 24.66 17.4 63.3 27 -1.6 29.1
05:50 1006 29.71 835 24.66 17.2 63 26 -2.1 28.2
05:55 1006 29.71 835 24.66 17.6 63.6 25 -2.7 27.1
06:00 1006 29.71 835 24.66 17.8 64 25 -2.5 27.5
06:05 1006 29.71 835 24.66 17.9 64.2 25 -2.3 27.8
06:10 1006 29.71 835 24.66 17.8 64.1 25 -2.5 27.4
06:15 1006 29.71 835 24.66 17.7 63.9 25 -2.2 28
06:20 1005 29.68 835 24.66 17.7 63.8 25 -2.3 27.9
06:25 1005 29.68 835 24.66 17.7 63.9 25 -2.2 28
06:30 1005 29.68 835 24.66 17.7 63.8 25 -2.4 27.8
06:35 1005 29.68 835 24.66 17.8 64.1 26 -2 28.3
06:40 1005 29.68 835 24.66 17.5 63.5 27 -1.6 29
06:45 1005 29.68 835 24.66 17.7 63.8 25 -2.5 27.5
06:50 1005 29.68 835 24.66 17.6 63.6 25 -2.5 27.5
06:55 1005 29.68 834 24.63 17.7 63.9 26 -2.1 28.1
07:00 1005 29.68 834 24.63 17.5 63.6 25 -2.6 27.3
07:05 1005 29.68 834 24.63 17.6 63.6 25 -2.4 27.7
07:10 1005 29.68 834 24.63 17.7 63.9 25 -2.3 27.8
07:15 1005 29.68 834 24.63 17.8 64 25 -2.6 27.3
07:20 1005 29.68 834 24.63 17.9 64.1 25 -2.5 27.6
07:25 1005 29.68 834 24.63 17.8 64.1 25 -2.3 27.9
07:30 1005 29.68 834 24.63 17.8 64 25 -2.2 28
07:35 1005 29.68 834 24.63 17.7 63.9 25 -2.4 27.7
07:40 1005 29.68 834 24.63 17.7 63.9 25 -2.5 27.5
07:45 1005 29.68 834 24.63 17.8 64.1 25 -2.4 27.7
07:50 1005 29.68 834 24.63 17.7 63.8 26 -2 28.4
07:55 1005 29.68 834 24.63 17.6 63.7 26 -2.1 28.2
08:00 1005 29.68 834 24.63 17.6 63.7 26 -2.1 28.2
08:05 1005 29.68 834 24.63 17.7 63.8 26 -2 28.4
08:10 1005 29.68 834 24.63 17.7 63.9 26 -1.7 29
08:15 1005 29.68 834 24.63 17.7 63.9 27 -1.5 29.4
08:20 1005 29.68 834 24.63 17.6 63.7 27 -1.6 29.1
08:25 1005 29.68 835 24.66 17.6 63.8 26 -1.7 28.9
08:30 1005 29.68 835 24.66 17.7 63.8 27 -1.7 29
08:35 1006 29.71 835 24.66 17.7 63.8 27 -1.4 29.6
08:40 1005 29.68 835 24.66 17.6 63.7 27 -1.4 29.4
08:45 1005 29.68 835 24.66 17.7 63.8 27 -1.6 29.1
08:50 1005 29.68 834 24.63 17.6 63.7 28 -1 30.2
08:55 1005 29.68 834 24.63 17.5 63.5 28 -1.2 29.9
09:00 1005 29.68 835 24.66 17.5 63.5 29 -0.8 30.5
09:05 1005 29.68 835 24.66 17.5 63.4 28 -1.1 29.9
09:10 1006 29.71 835 24.66 17.6 63.7 29 -0.7 30.8
09:15 1006 29.71 835 24.66 17.6 63.7 29 -0.5 31.1
09:20 1006 29.71 835 24.66 17.8 64 28 -0.7 30.7
09:25 1006 29.71 835 24.66 17.7 63.9 28 -0.7 30.7
09:30 1006 29.71 835 24.66 17.6 63.7 29 -0.6 31
09:35 1006 29.71 835 24.66 17.6 63.7 29 -0.7 30.8
09:40 1006 29.71 835 24.66 17.6 63.7 29 -0.3 31.4
09:45 1006 29.71 835 24.66 17.5 63.5 29 -0.6 30.8
09:50 1006 29.71 835 24.66 17.5 63.5 29 -0.6 31
09:55 1006 29.71 835 24.66 17.5 63.4 29 -0.4 31.2
10:00 1006 29.71 835 24.66 17.5 63.5 30 -0.1 31.8
10:05 1006 29.71 835 24.66 17.7 63.8 29 -0.6 30.9
10:10 1006 29.71 835 24.66 17.8 64 28 -0.8 30.6
10:15 1006 29.71 835 24.66 17.8 64 29 -0.3 31.4
10:20 1006 29.71 835 24.66 17.5 63.6 29 -0.6 30.9
10:25 1006 29.71 835 24.66 17.6 63.7 29 -0.4 31.3
10:30 1006 29.71 835 24.66 17.6 63.7 29 -0.6 30.8
10:35 1006 29.71 835 24.66 17.8 64 28 -0.6 30.9
10:40 1006 29.71 835 24.66 17.7 63.9 28 -0.7 30.7
10:45 1006 29.71 835 24.66 17.6 63.7 29 -0.4 31.3
10:50 1006 29.71 835 24.66 17.5 63.5 29 -0.7 30.8
10:55 1006 29.71 835 24.66 17.6 63.7 30 -0.2 31.7
11:00 1006 29.71 835 24.66 17.5 63.6 30 -0.3 31.5
11:05 1006 29.71 835 24.66 17.6 63.7 30 -0.1 31.8
11:10 1006 29.71 835 24.66 17.7 63.9 30 0.1 32.1
11:15 1006 29.71 835 24.66 17.6 63.7 31 0.4 32.8
11:20 1006 29.71 835 24.66 17.5 63.5 31 0.3 32.5
11:25 1006 29.71 835 24.66 17.5 63.5 32 0.6 33
11:30 1006 29.71 835 24.66 17.3 63.2 32 0.6 33.1
11:35 1006 29.71 835 24.66 17.2 63 33 0.9 33.6
11:40 1006 29.71 835 24.66 17.4 63.4 32 0.6 33.1
11:45 1006 29.71 835 24.66 17.3 63.1 32 0.5 33
11:50 1006 29.71 835 24.66 17.5 63.5 31 0.4 32.7
11:55 1005 29.68 835 24.66 17.8 64 31 0.7 33.2
12:00 1006 29.71 835 24.66 18 64.4 30 0.4 32.7
12:05 1005 29.68 835 24.66 18.4 65.1 29 0.3 32.5
12:10 1005 29.68 835 24.66 18.3 64.9 30 0.3 32.6
12:15 1005 29.68 835 24.66 18.3 65 30 0.4 32.8
12:20 1005 29.68 835 24.66 18.5 65.3 29 0.4 32.6
12:25 1005 29.68 835 24.66 18.7 65.7 29 0.5 32.8
12:30 1005 29.68 835 24.66 18.8 65.8 28 0 32
12:35 1005 29.68 835 24.66 18.9 66 27 -0.4 31.3
12:40 1005 29.68 835 24.66 18.8 65.8 27 -0.6 31
12:45 1006 29.71 835 24.66 18.8 65.9 27 -0.3 31.5
12:50 1006 29.71 835 24.66 18.6 65.5 27 -0.5 31.1
12:55 1006 29.71 835 24.66 18.4 65.1 27 -0.8 30.5
13:00 1006 29.71 835 24.66 18.4 65.2 26 -1.2 29.8
13:05 1006 29.71 835 24.66 18.6 65.5 27 -0.8 30.5
13:10 1006 29.71 835 24.66 18.4 65.2 27 -0.7 30.7
13:15 1006 29.71 835 24.66 18.4 65.1 28 -0.2 31.6
13:20 1006 29.71 835 24.66 18.2 64.7 29 0.1 32.2
13:25 1006 29.71 835 24.66 17.9 64.2 31 0.5 32.9
13:30 1006 29.71 835 24.66 17.8 64 29 -0.2 31.6
13:35 1006 29.71 835 24.66 17.4 63.4 31 0.1 32.2
13:40 1006 29.71 835 24.66 17.2 62.9 31 -0 32
13:45 1006 29.71 835 24.66 17.1 62.9 31 0.1 32.2
13:50 1006 29.71 836 24.69 16.8 62.2 33 0.4 32.6
13:55 1007 29.74 836 24.69 16.5 61.7 34 0.7 33.3
14:00 1007 29.74 836 24.69 16.2 61.1 35 1 33.8
14:05 1007 29.74 836 24.69 16 60.8 37 1.3 34.4
14:10 1008 29.77 837 24.72 15.6 60.1 46 4.1 39.3
14:15 1008 29.77 837 24.72 14.1 57.4 58 6 42.8
14:20 1008 29.77 837 24.72 12.2 54 67 6.3 43.4
14:25 1008 29.77 837 24.72 11.2 52.2 72 6.4 43.5
14:30 1008 29.77 838 24.75 10.7 51.3 73 6.2 43.1
14:35 1009 29.8 838 24.75 10.6 51 75 6.4 43.6
14:40 1009 29.8 838 24.75 10.4 50.6 77 6.5 43.7
14:45 1009 29.8 838 24.75 10 49.9 79 6.5 43.7
14:50 1009 29.8 838 24.75 9.8 49.6 81 6.7 44.1
14:55 1009 29.8 838 24.75 9.8 49.6 83 7.1 44.7
15:00 1009 29.8 838 24.75 9.9 49.8 79 6.4 43.6
15:05 1009 29.8 839 24.78 10 49.9 79 6.6 43.8
15:10 1010 29.83 839 24.78 9.9 49.8 80 6.6 44
15:15 1010 29.83 839 24.78 9.7 49.4 78 6 42.9
15:20 1010 29.83 839 24.78 9.6 49.3 76 5.6 42
15:25 1010 29.83 839 24.78 9.7 49.5 68 4 39.3
15:30 1010 29.83 839 24.78 9.7 49.5 66 3.7 38.7
15:35 1010 29.83 839 24.78 9.6 49.2 63 2.8 37
15:40 1010 29.83 839 24.78 9.5 49.1 63 2.9 37.3
15:45 1010 29.83 839 24.78 9.5 49.1 62 2.7 36.9
15:50 1010 29.83 839 24.78 9.5 49.2 59 2 35.5
15:55 1010 29.83 839 24.78 9.7 49.5 59 2.1 35.9
16:00 1010 29.83 839 24.78 9.8 49.7 59 2.1 35.8
16:05 1010 29.83 839 24.78 10 49.9 58 2 35.7
16:10 1010 29.83 839 24.78 10 50 56 1.8 35.2
16:15 1010 29.83 839 24.78 10 50.1 57 2 35.5
16:20 1010 29.83 840 24.81 9.8 49.7 61 2.6 36.7
16:25 1010 29.83 840 24.81 9.5 49.2 61 2.4 36.2
16:30 1010 29.83 840 24.81 9.3 48.8 63 2.6 36.7
16:35 1010 29.83 840 24.81 9.1 48.4 64 2.7 36.9
16:40 1010 29.83 840 24.81 9 48.3 61 1.9 35.4
16:45 1010 29.83 840 24.81 9.2 48.5 60 1.7 35.1
16:50 1010 29.83 840 24.81 9.3 48.8 58 1.5 34.7
16:55 1010 29.83 840 24.81 9.6 49.3 55 1 33.8
17:00 1011 29.85 840 24.81 9.7 49.5 56 1.5 34.7
17:05 1011 29.85 840 24.81 9.6 49.4 55 1.1 34
17:10 1011 29.85 840 24.81 9.8 49.6 53 0.7 33.2
17:15 1011 29.85 840 24.81 10 49.9 54 1 33.8
17:20 1010 29.83 840 24.81 9.7 49.4 56 1.5 34.6
17:25 1010 29.83 840 24.81 9.4 49 59 1.8 35.3
17:30 1010 29.83 840 24.81 9.2 48.6 58 1.4 34.6
17:35 1010 29.83 840 24.81 9.2 48.5 58 1.5 34.7
17:40 1010 29.83 840 24.81 9.2 48.5 57 1 33.8
17:45 1011 29.85 840 24.81 9.2 48.6 57 1.1 33.9
17:50 1011 29.85 840 24.81 9.2 48.6 57 1.1 33.9
17:55 1010 29.83 840 24.81 9.3 48.8 55 0.7 33.3
18:00 1011 29.85 840 24.81 9.4 48.9 54 0.5 32.9
18:05 1011 29.85 840 24.81 9.5 49.1 53 0.5 32.8
18:10 1011 29.85 840 24.81 9.6 49.2 53 0.4 32.7
18:15 1011 29.85 840 24.81 9.5 49 54 0.6 33
18:20 1011 29.85 840 24.81 9.5 49 53 0.4 32.7
18:25 1011 29.85 840 24.81 9.5 49.1 54 0.6 33.1
18:30 1011 29.85 840 24.81 9.4 48.9 54 0.6 33.1
18:35 1011 29.85 840 24.81 9.4 48.9 54 0.5 32.9
18:40 1011 29.85 840 24.81 9.4 48.9 54 0.5 32.9
18:45 1011 29.85 840 24.81 9.4 48.9 54 0.6 33.1
18:50 1011 29.85 840 24.81 9.3 48.7 54 0.5 32.9
18:55 1011 29.85 840 24.81 9.3 48.7 54 0.4 32.8
19:00 1011 29.85 840 24.81 9.3 48.7 54 0.4 32.7
19:05 1011 29.85 840 24.81 9.3 48.8 52 0 32
19:10 1011 29.85 840 24.81 9.4 49 52 0.1 32.1
19:15 1011 29.85 840 24.81 9.4 48.8 52 -0 32
19:20 1011 29.85 840 24.81 9.4 48.9 52 -0 32
19:25 1011 29.85 840 24.81 9.3 48.8 52 -0.1 31.9
19:30 1011 29.85 840 24.81 9.4 48.9 52 -0 32
19:35 1011 29.85 840 24.81 9.4 48.8 51 -0.2 31.7
19:40 1011 29.85 840 24.81 9.4 48.8 51 -0.2 31.7
19:45 1011 29.85 840 24.81 9.3 48.8 51 -0.1 31.7
19:50 1011 29.85 840 24.81 9.3 48.7 50 -0.4 31.2
19:55 1011 29.85 840 24.81 9.4 49 50 -0.4 31.3
20:00 1011 29.85 840 24.81 9.5 49 49 -0.6 30.9
20:05 1011 29.85 840 24.81 9.5 49.1 49 -0.8 30.6
20:10 1011 29.85 840 24.81 9.6 49.3 49 -0.5 31.1
20:15 1011 29.85 840 24.81 9.4 49 50 -0.5 31.1
20:20 1011 29.85 840 24.81 9.4 49 49 -0.7 30.7
20:25 1011 29.85 840 24.81 9.4 48.9 49 -0.7 30.8
20:30 1011 29.85 840 24.81 9.4 49 48 -1 30.3
20:35 1011 29.85 840 24.81 9.6 49.2 48 -0.9 30.4
20:40 1011 29.85 840 24.81 9.5 49.1 48 -0.9 30.4
20:45 1011 29.85 840 24.81 9.5 49.1 47 -1.2 29.9
20:50 1011 29.85 840 24.81 9.6 49.2 47 -1 30.1
20:55 1011 29.85 840 24.81 9.6 49.3 47 -1 30.1
21:00 1011 29.85 840 24.81 9.5 49.2 49 -0.7 30.7
21:05 1011 29.85 840 24.81 9.3 48.8 49 -0.8 30.5
21:10 1011 29.85 840 24.81 9.3 48.7 49 -0.8 30.6
21:15 1011 29.85 840 24.81 9.3 48.7 50 -0.6 31
21:20 1011 29.85 840 24.81 9.1 48.5 51 -0.5 31.1
21:25 1011 29.85 840 24.81 9.1 48.3 51 -0.5 31
21:30 1011 29.85 840 24.81 9.1 48.3 51 -0.5 31.1
21:35 1011 29.85 840 24.81 9 48.3 51 -0.5 31.1
21:40 1011 29.85 840 24.81 9 48.3 51 -0.5 31
21:45 1011 29.85 840 24.81 9 48.3 51 -0.6 30.8
21:50 1011 29.85 840 24.81 9.1 48.4 50 -0.7 30.8
21:55 1011 29.85 840 24.81 9.1 48.4 50 -0.7 30.8
22:00 1011 29.85 840 24.81 9.2 48.5 49 -0.9 30.4
22:05 1011 29.85 840 24.81 9.3 48.7 50 -0.7 30.7
22:10 1011 29.85 840 24.81 9.1 48.4 50 -0.6 30.9
22:15 1011 29.85 840 24.81 9 48.3 50 -0.8 30.6
22:20 1011 29.85 840 24.81 9.1 48.3 49 -1 30.3
22:25 1011 29.85 840 24.81 9 48.1 50 -0.8 30.6
22:30 1011 29.85 840 24.81 8.8 47.9 51 -0.8 30.6
22:35 1011 29.85 840 24.81 8.7 47.6 51 -0.9 30.5
22:40 1011 29.85 840 24.81 8.7 47.7 51 -0.9 30.4
22:45 1011 29.85 840 24.81 8.8 47.8 50 -1.1 30.1
22:50 1011 29.85 840 24.81 8.9 47.9 50 -1 30.2
22:55 1011 29.85 840 24.81 8.9 48.1 50 -1 30.1
23:00 1011 29.85 840 24.81 8.9 48 50 -0.9 30.3
23:05 1011 29.85 840 24.81 8.7 47.6 51 -0.8 30.6
23:10 1011 29.85 840 24.81 8.6 47.5 50 -1.1 30
23:15 1011 29.85 840 24.81 8.7 47.6 50 -1 30.2
23:20 1011 29.85 840 24.81 8.6 47.5 51 -0.9 30.3
23:25 1011 29.85 840 24.81 8.6 47.4 53 -0.4 31.3
23:30 1011 29.85 840 24.81 8.3 46.9 55 -0.1 31.8
23:35 1011 29.85 840 24.81 8 46.3 56 -0.2 31.7
23:40 1011 29.85 840 24.81 7.9 46.1 55 -0.5 31.1
23:45 1011 29.85 840 24.81 8 46.3 55 -0.5 31.1
23:50 1011 29.85 840 24.81 7.9 46.1 56 -0.5 31.2
23:55 1011 29.85 840 24.81 7.9 46.2 55 -0.7 30.8
24:00 1011 29.85 840 24.81 8 46.5 53 -0.9 30.4